createdAt,value
2018-10-06T00:01:26.104Z,15.73
2018-10-06T00:03:54.226Z,13.30
2018-10-06T00:06:22.411Z,22.73
2018-10-06T00:08:50.620Z,13.57
2018-10-06T00:11:18.864Z,13.57
2018-10-06T00:13:46.983Z,13.03
2018-10-06T00:16:15.050Z,13.73
2018-10-06T00:18:43.138Z,15.73
2018-10-06T00:21:11.747Z,13.30
2018-10-06T00:23:39.827Z,14.43
2018-10-06T00:26:07.924Z,13.97
2018-10-06T00:28:36.005Z,19.20
2018-10-06T00:31:04.082Z,18.30
2018-10-06T00:33:32.190Z,15.97
2018-10-06T00:36:00.290Z,12.60
2018-10-06T00:38:28.390Z,11.83
2018-10-06T00:40:56.493Z,12.77
2018-10-06T00:43:24.574Z,11.40
2018-10-06T00:45:52.832Z,17.27
2018-10-06T00:48:20.911Z,22.10
2018-10-06T00:50:48.970Z,12.90
2018-10-06T00:53:17.123Z,14.83
2018-10-06T00:55:45.199Z,16.20
2018-10-06T00:58:13.346Z,14.63
2018-10-06T01:00:41.415Z,11.43
2018-10-06T01:03:09.712Z,11.53
2018-10-06T01:05:37.984Z,14.20
2018-10-06T01:08:06.063Z,19.87
2018-10-06T01:10:34.237Z,19.90
2018-10-06T01:13:02.308Z,18.10
2018-10-06T01:15:30.423Z,18.03
2018-10-06T01:17:58.754Z,17.97
2018-10-06T01:20:27.057Z,11.57
2018-10-06T01:22:55.164Z,13.10
2018-10-06T01:25:23.294Z,15.17
2018-10-06T01:27:51.384Z,11.50
2018-10-06T01:30:19.479Z,13.67
2018-10-06T01:32:47.564Z,16.57
2018-10-06T01:35:15.675Z,12.30
2018-10-06T01:37:43.854Z,15.70
2018-10-06T01:40:11.927Z,10.83
2018-10-06T01:42:40.023Z,12.03
2018-10-06T01:45:08.133Z,17.70
2018-10-06T01:47:36.065Z,12.70
2018-10-06T01:50:04.404Z,11.87
2018-10-06T01:52:32.426Z,15.80
2018-10-06T01:55:00.500Z,14.33
2018-10-06T01:57:28.608Z,13.37
2018-10-06T01:59:56.694Z,10.57
2018-10-06T02:02:24.827Z,13.13
2018-10-06T02:04:52.930Z,14.17
2018-10-06T02:07:21.014Z,20.47
2018-10-06T02:09:49.280Z,11.87
2018-10-06T02:12:17.431Z,15.20
2018-10-06T02:14:45.515Z,13.73
2018-10-06T02:17:13.633Z,15.13
2018-10-06T02:19:41.711Z,19.07
2018-10-06T02:22:09.823Z,13.13
2018-10-06T02:24:37.900Z,11.77
2018-10-06T02:27:06.327Z,18.97
2018-10-06T02:29:34.426Z,18.93
2018-10-06T02:32:02.503Z,10.70
2018-10-06T02:34:30.598Z,10.40
2018-10-06T02:36:58.957Z,14.43
2018-10-06T02:39:26.932Z,13.87
2018-10-06T02:41:55.228Z,14.27
2018-10-06T02:44:23.315Z,13.00
2018-10-06T02:46:51.455Z,14.73
2018-10-06T02:49:19.582Z,13.40
2018-10-06T02:51:47.821Z,22.93
2018-10-06T02:54:15.957Z,13.40
2018-10-06T02:56:43.979Z,19.53
2018-10-06T02:59:12.911Z,23.80
2018-10-06T03:01:40.974Z,14.13
2018-10-06T03:04:09.054Z,16.57
2018-10-06T03:06:37.179Z,19.33
2018-10-06T03:09:06.858Z,11.30
2018-10-06T03:11:34.941Z,23.23
2018-10-06T03:14:03.241Z,21.30
2018-10-06T03:16:31.364Z,17.03
2018-10-06T03:18:59.459Z,19.17
2018-10-06T03:21:27.539Z,12.93
2018-10-06T03:23:55.894Z,13.23
2018-10-06T03:26:24.187Z,17.50
2018-10-06T03:28:52.345Z,17.40
2018-10-06T03:31:20.508Z,21.37
2018-10-06T03:33:48.607Z,14.33
2018-10-06T03:36:16.679Z,18.83
2018-10-06T03:38:44.750Z,11.40
2018-10-06T03:41:12.835Z,20.03
2018-10-06T03:43:40.979Z,18.10
2018-10-06T03:46:11.262Z,16.53
2018-10-06T03:48:39.355Z,16.77
2018-10-06T03:51:07.462Z,13.00
2018-10-06T03:53:35.776Z,22.87
2018-10-06T03:56:03.860Z,18.90
2018-10-06T03:58:32.126Z,14.80
2018-10-06T04:01:00.307Z,18.20
2018-10-06T04:03:28.584Z,18.57
2018-10-06T04:05:56.702Z,17.13
2018-10-06T04:08:24.775Z,18.80
2018-10-06T04:10:52.878Z,23.77
2018-10-06T04:13:20.963Z,16.13
2018-10-06T04:15:49.147Z,18.97
2018-10-06T04:18:17.214Z,15.03
2018-10-06T04:20:45.319Z,14.00
2018-10-06T04:23:13.403Z,14.10
2018-10-06T04:25:41.490Z,16.30
2018-10-06T04:28:09.561Z,16.73
2018-10-06T04:30:37.652Z,14.93
2018-10-06T04:33:05.911Z,17.27
2018-10-06T04:35:34.000Z,14.13
2018-10-06T04:38:02.141Z,12.93
2018-10-06T04:40:30.216Z,30.27
2018-10-06T04:42:58.307Z,12.43
2018-10-06T04:45:26.399Z,15.60
2018-10-06T04:47:54.483Z,11.77
2018-10-06T04:50:22.675Z,13.50
2018-10-06T04:52:51.496Z,13.40
2018-10-06T04:55:19.559Z,15.23
2018-10-06T04:57:47.618Z,14.93
2018-10-06T05:00:15.795Z,14.80
2018-10-06T05:02:43.857Z,11.73
2018-10-06T05:05:11.935Z,15.30
2018-10-06T05:07:40.019Z,19.00
2018-10-06T05:10:08.164Z,13.57
2018-10-06T05:12:36.637Z,14.13
2018-10-06T05:15:04.751Z,19.83
2018-10-06T05:17:32.830Z,14.13
2018-10-06T05:20:00.911Z,17.37
2018-10-06T05:22:29.540Z,15.40
2018-10-06T05:24:57.633Z,18.93
2018-10-06T05:27:25.728Z,17.50
2018-10-06T05:29:53.814Z,16.27
2018-10-06T05:32:21.874Z,19.40
2018-10-06T05:34:49.949Z,20.40
2018-10-06T05:37:18.022Z,27.83
2018-10-06T05:39:46.241Z,16.23
2018-10-06T05:42:14.324Z,14.63
2018-10-06T05:44:42.727Z,17.90
2018-10-06T05:47:10.820Z,18.27
2018-10-06T05:49:38.913Z,18.87
2018-10-06T05:52:07.034Z,19.50
2018-10-06T05:54:35.107Z,26.37
2018-10-06T05:57:03.209Z,15.57
2018-10-06T05:59:31.291Z,16.77
2018-10-06T06:01:59.398Z,23.23
2018-10-06T06:04:27.490Z,20.77
2018-10-06T06:06:55.574Z,27.03
2018-10-06T06:09:23.669Z,17.47
2018-10-06T06:11:51.768Z,18.43
2018-10-06T06:14:19.852Z,17.20
2018-10-06T06:16:48.254Z,16.87
2018-10-06T06:19:16.335Z,20.37
2018-10-06T06:21:44.415Z,16.17
2018-10-06T06:24:12.503Z,28.17
2018-10-06T06:26:40.615Z,15.43
2018-10-06T06:29:08.751Z,12.43
2018-10-06T06:31:36.907Z,19.50
2018-10-06T06:34:05.018Z,21.00
2018-10-06T06:36:33.314Z,24.10
2018-10-06T06:39:02.422Z,16.87
2018-10-06T06:41:31.404Z,22.70
2018-10-06T06:43:59.533Z,16.53
2018-10-06T06:46:27.569Z,21.77
2018-10-06T06:48:56.834Z,19.60
2018-10-06T06:51:24.925Z,21.60
2018-10-06T06:53:53.036Z,14.50
2018-10-06T06:56:21.150Z,22.40
2018-10-06T06:58:49.630Z,21.27
2018-10-06T07:01:17.786Z,22.97
2018-10-06T07:03:45.922Z,21.77
2018-10-06T07:06:14.216Z,23.67
2018-10-06T07:08:42.390Z,31.93
2018-10-06T07:11:10.471Z,28.40
2018-10-06T07:13:38.751Z,25.50
2018-10-06T07:16:07.360Z,31.27
2018-10-06T07:18:35.897Z,33.70
2018-10-06T07:21:03.919Z,34.63
2018-10-06T07:23:32.072Z,25.40
2018-10-06T07:26:00.172Z,32.23
2018-10-06T07:28:28.345Z,20.30
2018-10-06T07:30:56.411Z,25.73
2018-10-06T07:33:24.524Z,29.63
2018-10-06T07:35:52.593Z,30.23
2018-10-06T07:38:20.679Z,23.60
2018-10-06T07:40:48.756Z,25.50
2018-10-06T07:43:16.891Z,23.43
2018-10-06T07:45:44.979Z,29.60
2018-10-06T07:48:13.299Z,22.83
2018-10-06T07:50:41.382Z,19.57
2018-10-06T07:53:09.559Z,30.37
2018-10-06T07:55:37.599Z,23.87
2018-10-06T07:58:05.715Z,33.17
2018-10-06T08:00:33.804Z,21.40
2018-10-06T08:03:01.872Z,24.73
2018-10-06T08:05:29.986Z,44.53
2018-10-06T08:07:58.079Z,32.60
2018-10-06T08:10:26.183Z,26.23
2018-10-06T08:12:54.410Z,23.63
2018-10-06T08:15:22.631Z,32.47
2018-10-06T08:17:51.931Z,23.60
2018-10-06T08:20:20.015Z,21.00
2018-10-06T08:22:48.241Z,25.40
2018-10-06T08:25:17.970Z,27.80
2018-10-06T08:27:46.355Z,31.23
2018-10-06T08:30:14.446Z,31.00
2018-10-06T08:32:42.564Z,30.53
2018-10-06T08:35:10.719Z,33.60
2018-10-06T08:37:38.841Z,28.47
2018-10-06T08:40:06.936Z,22.93
2018-10-06T08:42:35.085Z,26.93
2018-10-06T08:45:03.190Z,22.30
2018-10-06T08:47:31.270Z,38.27
2018-10-06T08:49:59.371Z,29.20
2018-10-06T08:52:27.502Z,28.70
2018-10-06T08:54:55.584Z,37.93
2018-10-06T08:57:23.712Z,37.13
2018-10-06T08:59:51.871Z,26.33
2018-10-06T09:02:19.952Z,39.30
2018-10-06T09:04:48.091Z,51.03
2018-10-06T09:07:16.322Z,25.07
2018-10-06T09:09:44.430Z,24.73
2018-10-06T09:12:12.543Z,51.70
2018-10-06T09:14:40.667Z,28.27
2018-10-06T09:17:08.770Z,41.27
2018-10-06T09:19:36.887Z,35.90
2018-10-06T09:22:04.986Z,34.30
2018-10-06T09:24:33.058Z,32.57
2018-10-06T09:27:01.149Z,32.03
2018-10-06T09:29:29.226Z,30.20
2018-10-06T09:31:57.307Z,34.73
2018-10-06T09:34:25.431Z,26.73
2018-10-06T09:36:53.553Z,28.23
2018-10-06T09:39:21.651Z,29.17
2018-10-06T09:41:50.108Z,29.07
2018-10-06T09:44:18.187Z,33.70
2018-10-06T09:46:46.505Z,40.43
2018-10-06T09:49:14.599Z,41.60
2018-10-06T09:51:42.699Z,39.90
2018-10-06T09:54:10.779Z,22.77
2018-10-06T09:56:38.859Z,28.60
2018-10-06T09:59:07.107Z,40.53
2018-10-06T10:03:44.147Z,28.60
2018-10-06T10:06:12.247Z,32.17
2018-10-06T10:08:40.401Z,30.73
2018-10-06T10:11:08.500Z,28.27
2018-10-06T10:13:36.694Z,30.37
2018-10-06T10:16:04.914Z,35.23
2018-10-06T10:18:33.073Z,39.07
2018-10-06T10:21:01.125Z,39.10
2018-10-06T10:23:29.288Z,26.00
2018-10-06T10:25:57.327Z,35.13
2018-10-06T10:28:25.498Z,32.90
2018-10-06T10:30:53.691Z,30.13
2018-10-06T10:33:21.795Z,23.33
2018-10-06T10:35:49.929Z,24.60
2018-10-06T10:38:18.022Z,28.60
2018-10-06T10:40:46.126Z,25.00
2018-10-06T10:43:14.200Z,34.00
2018-10-06T10:45:42.282Z,30.47
2018-10-06T10:48:10.389Z,23.20
2018-10-06T10:50:38.515Z,32.27
2018-10-06T10:53:06.588Z,29.60
2018-10-06T10:55:34.733Z,25.57
2018-10-06T10:58:02.996Z,25.17
2018-10-06T11:00:31.171Z,33.10
2018-10-06T11:02:59.420Z,29.70
2018-10-06T11:05:27.535Z,27.23
2018-10-06T11:07:55.879Z,31.87
2018-10-06T11:10:23.989Z,40.83
2018-10-06T11:12:52.189Z,25.23
2018-10-06T11:15:20.301Z,34.17
2018-10-06T11:17:48.451Z,27.93
2018-10-06T11:20:16.595Z,27.40
2018-10-06T11:22:44.695Z,38.37
2018-10-06T11:25:13.067Z,35.20
2018-10-06T11:27:41.366Z,31.93
2018-10-06T11:30:09.471Z,28.00
2018-10-06T11:32:37.559Z,33.30
2018-10-06T11:35:05.646Z,28.93
2018-10-06T11:37:33.786Z,26.10
2018-10-06T11:40:01.816Z,26.20
2018-10-06T11:42:30.455Z,30.57
2018-10-06T11:44:58.539Z,28.07
2018-10-06T11:47:26.653Z,33.30
2018-10-06T11:49:54.931Z,28.60
2018-10-06T11:52:23.049Z,26.10
2018-10-06T11:54:51.130Z,31.13
2018-10-06T11:57:19.221Z,20.60
2018-10-06T11:59:47.544Z,29.40
2018-10-06T12:02:15.634Z,30.57
2018-10-06T12:04:43.962Z,23.97
2018-10-06T12:07:12.051Z,37.40
2018-10-06T12:09:40.140Z,31.13
2018-10-06T12:12:08.251Z,40.73
2018-10-06T12:14:36.367Z,33.13
2018-10-06T12:17:04.438Z,29.37
2018-10-06T12:19:32.707Z,28.00
2018-10-06T12:22:00.865Z,29.43
2018-10-06T12:24:29.136Z,28.67
2018-10-06T12:26:57.250Z,22.80
2018-10-06T12:29:25.335Z,22.90
2018-10-06T12:31:53.454Z,28.80
2018-10-06T12:34:21.562Z,20.70
2018-10-06T12:36:50.370Z,26.90
2018-10-06T12:39:18.525Z,31.53
2018-10-06T12:41:46.626Z,29.97
2018-10-06T12:44:15.651Z,29.40
2018-10-06T12:46:43.763Z,19.00
2018-10-06T12:49:12.130Z,30.23
2018-10-06T12:51:40.395Z,27.87
2018-10-06T12:54:08.484Z,23.97
2018-10-06T12:56:36.634Z,32.17
2018-10-06T12:59:04.717Z,27.40
2018-10-06T13:01:32.830Z,26.70
2018-10-06T13:04:00.913Z,33.63
2018-10-06T13:06:29.308Z,27.70
2018-10-06T13:08:57.407Z,31.80
2018-10-06T13:11:25.587Z,25.07
2018-10-06T13:13:53.678Z,35.20
2018-10-06T13:16:21.793Z,24.67
2018-10-06T13:18:56.226Z,29.27
2018-10-06T13:21:24.349Z,39.10
2018-10-06T13:23:52.452Z,23.17
2018-10-06T13:26:20.539Z,26.03
2018-10-06T13:28:48.874Z,25.67
2018-10-06T13:31:16.962Z,26.53
2018-10-06T13:33:45.082Z,25.60
2018-10-06T13:36:13.158Z,22.03
2018-10-06T13:38:41.246Z,26.47
2018-10-06T13:41:09.391Z,22.93
2018-10-06T13:43:37.499Z,23.90
2018-10-06T13:46:05.599Z,24.50
2018-10-06T13:48:33.717Z,37.47
2018-10-06T13:51:01.810Z,23.23
2018-10-06T13:53:30.554Z,22.63
2018-10-06T13:55:58.783Z,36.20
2018-10-06T13:58:26.867Z,28.20
2018-10-06T14:00:54.974Z,22.43
2018-10-06T14:03:23.072Z,21.57
2018-10-06T14:05:51.264Z,29.43
2018-10-06T14:08:19.343Z,23.00
2018-10-06T14:10:47.419Z,19.53
2018-10-06T14:13:15.510Z,23.67
2018-10-06T14:15:43.590Z,17.00
2018-10-06T14:18:11.794Z,28.73
2018-10-06T14:20:40.554Z,18.13
2018-10-06T14:23:08.801Z,24.90
2018-10-06T14:25:36.934Z,21.80
2018-10-06T14:28:05.027Z,33.43
2018-10-06T14:30:33.122Z,23.60
2018-10-06T14:33:01.220Z,21.90
2018-10-06T14:35:29.546Z,20.87
2018-10-06T14:37:57.795Z,20.40
2018-10-06T14:40:25.858Z,21.00
2018-10-06T14:42:53.935Z,19.93
2018-10-06T14:45:22.163Z,17.57
2018-10-06T14:47:51.110Z,21.33
2018-10-06T14:50:19.303Z,14.17
2018-10-06T14:52:47.625Z,15.13
2018-10-06T14:55:15.934Z,15.17
2018-10-06T14:57:44.003Z,17.97
2018-10-06T15:00:12.123Z,20.43
2018-10-06T15:02:40.215Z,17.80
2018-10-06T15:05:08.307Z,35.80
2018-10-06T15:07:36.742Z,19.90
2018-10-06T15:10:05.040Z,16.20
2018-10-06T15:12:33.119Z,15.47
2018-10-06T15:15:01.241Z,18.97
2018-10-06T15:17:29.307Z,28.13
2018-10-06T15:19:57.391Z,18.17
2018-10-06T15:22:25.464Z,16.50
2018-10-06T15:24:53.571Z,17.97
2018-10-06T15:27:21.705Z,16.87
2018-10-06T15:29:49.797Z,25.90
2018-10-06T15:32:17.902Z,17.73
2018-10-06T15:34:46.051Z,20.57
2018-10-06T15:37:14.121Z,22.10
2018-10-06T15:39:42.378Z,15.90
2018-10-06T15:42:11.105Z,18.93
2018-10-06T15:44:39.240Z,19.97
2018-10-06T15:47:07.640Z,24.30
2018-10-06T15:49:35.941Z,17.67
2018-10-06T15:52:04.071Z,17.63
2018-10-06T15:54:32.137Z,17.50
2018-10-06T15:57:00.535Z,19.33
2018-10-06T15:59:28.684Z,20.67
2018-10-06T16:01:56.779Z,25.70
2018-10-06T16:04:24.873Z,31.60
2018-10-06T16:06:53.104Z,15.90
2018-10-06T16:09:21.379Z,20.60
2018-10-06T16:11:49.467Z,19.37
2018-10-06T16:14:17.646Z,16.37
2018-10-06T16:16:46.208Z,22.40
2018-10-06T16:19:14.337Z,21.60
2018-10-06T16:21:42.801Z,21.80
2018-10-06T16:24:10.918Z,16.13
2018-10-06T16:26:39.012Z,21.40
2018-10-06T16:29:07.152Z,22.27
2018-10-06T16:31:35.239Z,27.30
2018-10-06T16:34:03.365Z,16.17
2018-10-06T16:36:31.447Z,26.73
2018-10-06T16:38:59.870Z,25.37
2018-10-06T16:41:28.263Z,24.23
2018-10-06T16:43:56.407Z,20.83
2018-10-06T16:46:24.503Z,23.87
2018-10-06T16:48:52.611Z,27.87
2018-10-06T16:51:20.710Z,22.03
2018-10-06T16:53:48.799Z,24.03
2018-10-06T16:56:16.967Z,19.60
2018-10-06T16:58:45.063Z,24.67
2018-10-06T17:01:13.176Z,20.40
2018-10-06T17:03:41.272Z,26.90
2018-10-06T17:06:09.444Z,32.87
2018-10-06T17:08:37.535Z,23.00
2018-10-06T17:11:05.622Z,28.30
2018-10-06T17:13:33.715Z,22.33
2018-10-06T17:16:01.843Z,23.77
2018-10-06T17:18:30.005Z,26.67
2018-10-06T17:20:58.098Z,23.00
2018-10-06T17:23:26.227Z,23.57
2018-10-06T17:25:54.472Z,16.13
2018-10-06T17:28:22.679Z,23.30
2018-10-06T17:30:50.787Z,26.37
2018-10-06T17:33:18.914Z,20.87
2018-10-06T17:35:46.995Z,23.47
2018-10-06T17:38:15.104Z,29.60
2018-10-06T17:40:43.174Z,22.40
2018-10-06T17:43:11.268Z,23.10
2018-10-06T17:45:39.567Z,25.10
2018-10-06T17:48:07.942Z,22.37
2018-10-06T17:50:36.218Z,22.27
2018-10-06T17:53:04.474Z,19.73
2018-10-06T17:55:32.559Z,23.10
2018-10-06T17:58:00.658Z,21.87
2018-10-06T18:00:28.758Z,30.83
2018-10-06T18:02:56.862Z,27.23
2018-10-06T18:05:25.110Z,22.10
2018-10-06T18:07:53.266Z,21.00
2018-10-06T18:10:21.428Z,26.70
2018-10-06T18:12:49.508Z,17.90
2018-10-06T18:15:17.659Z,37.90
2018-10-06T18:17:45.789Z,23.40
2018-10-06T18:20:21.073Z,22.93
2018-10-06T18:22:49.198Z,26.90
2018-10-06T18:25:17.402Z,20.80
2018-10-06T18:27:45.848Z,23.13
2018-10-06T18:30:14.598Z,33.13
2018-10-06T18:32:42.722Z,26.53
2018-10-06T18:35:10.843Z,31.47
2018-10-06T18:37:38.964Z,38.00
2018-10-06T18:40:07.119Z,28.20
2018-10-06T18:42:36.261Z,27.13
2018-10-06T18:45:04.627Z,21.97
2018-10-06T18:47:33.139Z,23.93
2018-10-06T18:50:02.271Z,25.47
2018-10-06T18:52:30.475Z,33.13
2018-10-06T18:54:58.535Z,30.80
2018-10-06T18:57:26.726Z,30.13
2018-10-06T18:59:54.773Z,30.60
2018-10-06T19:02:22.898Z,29.20
2018-10-06T19:04:51.000Z,27.17
2018-10-06T19:07:19.127Z,32.30
2018-10-06T19:09:47.243Z,28.73
2018-10-06T19:12:15.323Z,34.70
2018-10-06T19:14:43.409Z,35.03
2018-10-06T19:17:11.679Z,28.73
2018-10-06T19:19:39.771Z,36.60
2018-10-06T19:22:07.884Z,39.03
2018-10-06T19:24:36.039Z,35.30
2018-10-06T19:27:04.123Z,33.60
2018-10-06T19:29:32.259Z,30.83
2018-10-06T19:32:00.355Z,37.67
2018-10-06T19:34:28.449Z,31.17
2018-10-06T19:36:56.546Z,36.13
2018-10-06T19:39:24.698Z,27.30
2018-10-06T19:41:52.861Z,31.43
2018-10-06T19:44:20.949Z,32.70
2018-10-06T19:46:49.062Z,30.93
2018-10-06T19:49:17.251Z,26.17
2018-10-06T19:51:45.434Z,22.67
2018-10-06T19:54:13.518Z,25.10
2018-10-06T19:56:41.662Z,31.07
2018-10-06T19:59:09.772Z,25.60
2018-10-06T20:01:37.931Z,28.10
2018-10-06T20:04:06.075Z,25.70
2018-10-06T20:06:34.183Z,24.03
2018-10-06T20:09:02.335Z,30.03
2018-10-06T20:11:30.442Z,28.83
2018-10-06T20:13:58.533Z,28.60
2018-10-06T20:16:26.635Z,42.23
2018-10-06T20:18:54.776Z,30.47
2018-10-06T20:21:22.839Z,28.97
2018-10-06T20:23:50.899Z,28.13
2018-10-06T20:26:19.012Z,29.17
2018-10-06T20:28:47.231Z,29.53
2018-10-06T20:31:15.327Z,24.00
2018-10-06T20:33:43.433Z,28.73
2018-10-06T20:36:11.522Z,25.00
2018-10-06T20:38:39.618Z,28.77
2018-10-06T20:41:07.791Z,24.60
2018-10-06T20:43:35.859Z,24.83
2018-10-06T20:46:04.180Z,21.37
2018-10-06T20:48:32.270Z,20.37
2018-10-06T20:51:00.362Z,27.33
2018-10-06T20:53:28.494Z,23.10
2018-10-06T20:55:56.674Z,29.73
2018-10-06T20:58:24.781Z,23.57
2018-10-06T21:00:52.871Z,34.33
2018-10-06T21:03:20.995Z,28.37
2018-10-06T21:05:49.083Z,26.47
2018-10-06T21:08:17.179Z,26.20
2018-10-06T21:10:45.307Z,30.03
2018-10-06T21:13:13.396Z,34.07
2018-10-06T21:15:41.550Z,26.47
2018-10-06T21:18:09.704Z,29.90
2018-10-06T21:20:37.772Z,29.47
2018-10-06T21:23:05.861Z,34.73
2018-10-06T21:25:33.960Z,25.23
2018-10-06T21:28:02.103Z,28.93
2018-10-06T21:30:30.317Z,28.53
2018-10-06T21:32:58.424Z,23.63
2018-10-06T21:35:26.528Z,21.20
2018-10-06T21:37:54.821Z,25.20
2018-10-06T21:40:22.891Z,24.20
2018-10-06T21:42:50.993Z,22.03
2018-10-06T21:45:19.083Z,28.17
2018-10-06T21:47:47.249Z,20.90
2018-10-06T21:50:15.354Z,26.77
2018-10-06T21:52:43.657Z,23.87
2018-10-06T21:55:11.738Z,24.37
2018-10-06T21:57:40.079Z,25.80
2018-10-06T22:00:08.389Z,25.20
2018-10-06T22:02:36.504Z,31.37
2018-10-06T22:05:05.211Z,25.20
2018-10-06T22:07:33.296Z,26.27
2018-10-06T22:10:01.909Z,30.97
2018-10-06T22:12:30.059Z,34.33
2018-10-06T22:14:58.146Z,31.00
2018-10-06T22:17:26.266Z,33.20
2018-10-06T22:19:54.383Z,34.80
2018-10-06T22:22:22.776Z,40.93
2018-10-06T22:24:50.957Z,37.90
2018-10-06T22:27:19.099Z,38.73
2018-10-06T22:29:47.199Z,34.23
2018-10-06T22:32:15.627Z,35.30
2018-10-06T22:34:43.692Z,34.53
2018-10-06T22:37:11.980Z,46.53
2018-10-06T22:39:40.123Z,51.43
2018-10-06T22:42:08.247Z,41.73
2018-10-06T22:44:36.352Z,51.20
2018-10-06T22:47:04.480Z,43.07
2018-10-06T22:49:32.593Z,44.90
2018-10-06T22:52:00.920Z,38.77
2018-10-06T22:54:29.012Z,45.40
2018-10-06T22:56:57.996Z,45.43
2018-10-06T22:59:26.067Z,46.60
2018-10-06T23:01:54.135Z,40.80
2018-10-06T23:04:22.348Z,44.03
2018-10-06T23:06:50.428Z,51.57
2018-10-06T23:09:18.514Z,51.10
2018-10-06T23:11:46.610Z,45.57
2018-10-06T23:14:14.711Z,49.47
2018-10-06T23:16:42.852Z,54.97
2018-10-06T23:19:10.954Z,50.13
2018-10-06T23:21:39.028Z,48.40
2018-10-06T23:24:07.177Z,45.50
2018-10-06T23:26:35.351Z,43.40
2018-10-06T23:29:03.619Z,51.90
2018-10-06T23:31:31.723Z,47.10
2018-10-06T23:33:59.894Z,56.57
2018-10-06T23:36:27.968Z,53.03
2018-10-06T23:38:56.037Z,47.57
2018-10-06T23:41:24.147Z,61.73
2018-10-06T23:43:52.238Z,60.13
2018-10-06T23:46:20.742Z,54.37
2018-10-06T23:48:49.040Z,57.17
2018-10-06T23:51:17.159Z,57.90
2018-10-06T23:53:45.241Z,55.97
2018-10-06T23:56:13.599Z,57.87
2018-10-06T23:58:42.230Z,54.37
